Portada
METAR-TAF:

METAR-TAF

Aeropuertos :

Majuro, Majuro Atoll, Islas Marshall

Aeropuerto Internacional Amata Kabua

latitud: 07-04N, longitud: 171-17E, altitud: 2 m

Observación

El informe se hizo hace 40 minutos, a las 19:58 UTC
Viento 14 kt del noreste
Temperatura 28°C
Humedad 79%
Presión 1012 hPa
Visibilidad: 24.1 km
Escasas nubes a una altura de 1500 ft
Nubes dispersas a una altura de 5000 ft
Cielo cubierto a una altura de 30000 ft

METAR: PKMJ 271958Z 05014KT 15SM FEW015 SCT050 OVC300 28/24 A2988

Hora: 08:38 (20:38 UTC)

Pronóstico

El informe se hizo hace 3 horas y 11 minutos, a las 17:27 UTC
Pronóstico válido del 27 a las 18 UTC al 28 a las 18 UTC
Viento 14 kt del este
Visibilidad: 10 km
Nubes dispersas a una altura de 1500 ft
Nubes dispersas a una altura de 5000 ft
chaparrones en las proximidades

TAF: PKMJ 271727Z 2718/2818 08014KT P6SM VCSH SCT015 SCT050

Observaciones y pronósticos meteorológicos de más de 4000 aeropuertos (mensajes METAR y TAF).

Los puntos amarillos y rojos representan las estaciones disponibles.

Ponga el ratón en el punto deseado para ver el nombre de la estación.

Haga clic para ver las observaciones y los pronósticos meteorológicos.

Para cambiar el mapa : haga clic en los botones verdes con una cruz de color negro para hacer un zoom, en el botón verde con un guión para alejar o en las flechas verdes para mapas adyacentes.


METAR-TAF: